BAW140 OPKC-VNKT
Flight info
| Callsign | BAW140 |
|---|---|
| Flight time | 2h 25m |
| Altitude | 39000 |
| Route | DOVDO R462 KE DCT REPER W16 JDP W58 JJP J20 LKN W86 APIPU G598 SMR DCT RATAN |
| Aircraft | B77W/H-SDE1E2E3FGHIJ2J3J4J5M1RWXY/LB1D1 |
Departure
| Time | 2026-05-06 08:32 |
|---|---|
| Airport | Jinnah International Airport (OPKC) |
Arrival
| Time | 2026-05-06 10:58 |
|---|---|
| Airport | Tribhuvan International Airport (VNKT) |
| Time | Latitude | Longitude | Altitude | Speed | Heading |
|---|---|---|---|---|---|
| 2026-05-06 07:55 | 24.90279 | 67.17019 | 101 ft | 0 kts | 246° |
| 2026-05-06 08:23 | 24.90279 | 67.17020 | 102 ft | 0 kts | 246° |
| 2026-05-06 08:23 | 24.90279 | 67.17019 | 102 ft | 0 kts | 246° |
| 2026-05-06 08:23 | 24.90282 | 67.17025 | 102 ft | 2 kts | 246° |
| 2026-05-06 08:23 | 24.90288 | 67.17042 | 102 ft | 2 kts | 264° |
| 2026-05-06 08:24 | 24.90287 | 67.17060 | 102 ft | 2 kts | 293° |
| 2026-05-06 08:24 | 24.90278 | 67.17075 | 103 ft | 2 kts | 323° |
| 2026-05-06 08:24 | 24.90264 | 67.17083 | 102 ft | 2 kts | 352° |
| 2026-05-06 08:24 | 24.90260 | 67.17083 | 102 ft | 0 kts | 359° |
| 2026-05-06 08:26 | 24.90266 | 67.17083 | 102 ft | 5 kts | 359° |
| 2026-05-06 08:26 | 24.90341 | 67.17081 | 103 ft | 13 kts | 355° |
| 2026-05-06 08:27 | 24.90427 | 67.17061 | 105 ft | 13 kts | 346° |
| 2026-05-06 08:27 | 24.90513 | 67.17050 | 104 ft | 13 kts | 7° |
| 2026-05-06 08:27 | 24.90579 | 67.17106 | 102 ft | 13 kts | 69° |
| 2026-05-06 08:27 | 24.90602 | 67.17198 | 103 ft | 13 kts | 76° |
| 2026-05-06 08:28 | 24.90625 | 67.17292 | 103 ft | 13 kts | 75° |
| 2026-05-06 08:28 | 24.90653 | 67.17383 | 103 ft | 13 kts | 63° |
| 2026-05-06 08:28 | 24.90714 | 67.17450 | 106 ft | 13 kts | 33° |
| 2026-05-06 08:28 | 24.90795 | 67.17485 | 104 ft | 13 kts | 6° |
| 2026-05-06 08:29 | 24.90858 | 67.17433 | 107 ft | 13 kts | 278° |
| 2026-05-06 08:29 | 24.90854 | 67.17402 | 105 ft | 0 kts | 260° |
| 2026-05-06 08:30 | 24.90840 | 67.17369 | 106 ft | 15 kts | 227° |
| 2026-05-06 08:30 | 24.90829 | 67.17359 | 104 ft | 0 kts | 219° |
| 2026-05-06 08:31 | 24.90816 | 67.17315 | 107 ft | 9 kts | 257° |
| 2026-05-06 08:32 | 24.90742 | 67.16952 | 105 ft | 109 kts | 256° |
| 2026-05-06 08:32 | 24.90411 | 67.15726 | 118 ft | 220 kts | 252° |
| 2026-05-06 08:32 | 24.89946 | 67.13984 | 1365 ft | 235 kts | 255° |
| 2026-05-06 08:32 | 24.89362 | 67.12316 | 2911 ft | 237 kts | 235° |
| 2026-05-06 08:33 | 24.88021 | 67.11203 | 3842 ft | 254 kts | 199° |
| 2026-05-06 08:33 | 24.86241 | 67.11202 | 4879 ft | 265 kts | 163° |
| 2026-05-06 08:33 | 24.84731 | 67.12371 | 5946 ft | 274 kts | 128° |
| 2026-05-06 08:33 | 24.83954 | 67.14290 | 6711 ft | 280 kts | 104° |
| 2026-05-06 08:34 | 24.83446 | 67.16385 | 6978 ft | 285 kts | 107° |
| 2026-05-06 08:34 | 24.82240 | 67.20659 | 7004 ft | 296 kts | 108° |
| 2026-05-06 08:34 | 24.81617 | 67.22818 | 6993 ft | 296 kts | 108° |
| 2026-05-06 08:35 | 24.80994 | 67.24969 | 6994 ft | 294 kts | 108° |
| 2026-05-06 08:35 | 24.80372 | 67.27109 | 7013 ft | 293 kts | 108° |
| 2026-05-06 08:35 | 24.79753 | 67.29238 | 6995 ft | 292 kts | 108° |
| 2026-05-06 08:35 | 24.79134 | 67.31375 | 6992 ft | 293 kts | 108° |
| 2026-05-06 08:36 | 24.78513 | 67.33510 | 7013 ft | 293 kts | 108° |
| 2026-05-06 08:36 | 24.77892 | 67.35648 | 7020 ft | 294 kts | 108° |
| 2026-05-06 08:36 | 24.77269 | 67.37796 | 6990 ft | 295 kts | 108° |
| 2026-05-06 08:36 | 24.76642 | 67.39940 | 6993 ft | 294 kts | 108° |
| 2026-05-06 08:37 | 24.76017 | 67.42084 | 6999 ft | 294 kts | 108° |
| 2026-05-06 08:37 | 24.75390 | 67.44227 | 7016 ft | 294 kts | 108° |
| 2026-05-06 08:37 | 24.74764 | 67.46369 | 6996 ft | 294 kts | 108° |
| 2026-05-06 08:37 | 24.74147 | 67.48486 | 7012 ft | 296 kts | 108° |
| 2026-05-06 08:38 | 24.73511 | 67.50670 | 6998 ft | 297 kts | 108° |
| 2026-05-06 08:38 | 24.72884 | 67.52805 | 7015 ft | 297 kts | 108° |
| 2026-05-06 08:38 | 24.72252 | 67.54966 | 7017 ft | 297 kts | 108° |
| 2026-05-06 08:38 | 24.71751 | 67.57150 | 6986 ft | 294 kts | 92° |
| 2026-05-06 08:39 | 24.72053 | 67.59351 | 7127 ft | 294 kts | 67° |
| 2026-05-06 08:39 | 24.73009 | 67.61304 | 8027 ft | 292 kts | 58° |
| 2026-05-06 08:39 | 24.74069 | 67.63249 | 9096 ft | 300 kts | 58° |
| 2026-05-06 08:39 | 24.75158 | 67.65229 | 10165 ft | 305 kts | 57° |
| 2026-05-06 08:40 | 24.75615 | 67.66060 | 10591 ft | 309 kts | 57° |
| 2026-05-06 08:41 | 24.76221 | 67.67162 | 10849 ft | 325 kts | 57° |
| 2026-05-06 08:41 | 24.77472 | 67.69444 | 10737 ft | 368 kts | 57° |
| 2026-05-06 08:42 | 24.78816 | 67.71912 | 10688 ft | 380 kts | 58° |
| 2026-05-06 08:42 | 24.80173 | 67.74416 | 10640 ft | 381 kts | 58° |
| 2026-05-06 08:42 | 24.81532 | 67.76925 | 10604 ft | 382 kts | 58° |
| 2026-05-06 08:42 | 24.82887 | 67.79428 | 10604 ft | 380 kts | 58° |
| 2026-05-06 08:43 | 24.84240 | 67.81928 | 10605 ft | 379 kts | 58° |
| 2026-05-06 08:43 | 24.85587 | 67.84418 | 10608 ft | 378 kts | 58° |
| 2026-05-06 08:43 | 24.86934 | 67.86908 | 10604 ft | 379 kts | 58° |
| 2026-05-06 08:43 | 24.88166 | 67.89453 | 10600 ft | 378 kts | 66° |
| 2026-05-06 08:44 | 24.88935 | 67.92230 | 10601 ft | 381 kts | 77° |
| 2026-05-06 08:44 | 24.89189 | 67.95148 | 10605 ft | 384 kts | 89° |
| 2026-05-06 08:44 | 24.88918 | 67.98088 | 10610 ft | 388 kts | 100° |
| 2026-05-06 08:44 | 24.88159 | 68.00867 | 10606 ft | 390 kts | 110° |
| 2026-05-06 08:45 | 24.87048 | 68.03596 | 10602 ft | 391 kts | 115° |
| 2026-05-06 08:45 | 24.85842 | 68.06279 | 10604 ft | 391 kts | 116° |
| 2026-05-06 08:45 | 24.84598 | 68.08950 | 10588 ft | 390 kts | 118° |
| 2026-05-06 08:45 | 24.83165 | 68.11439 | 10597 ft | 391 kts | 124° |
| 2026-05-06 08:46 | 24.81571 | 68.13866 | 10596 ft | 392 kts | 126° |
| 2026-05-06 08:46 | 24.79943 | 68.16272 | 10600 ft | 392 kts | 126° |
| 2026-05-06 08:46 | 24.78289 | 68.18701 | 10691 ft | 390 kts | 126° |
| 2026-05-06 08:46 | 24.76682 | 68.21050 | 11142 ft | 392 kts | 126° |
| 2026-05-06 08:47 | 24.75003 | 68.23487 | 11644 ft | 405 kts | 126° |
| 2026-05-06 08:47 | 24.73284 | 68.25963 | 12129 ft | 409 kts | 126° |
| 2026-05-06 08:47 | 24.71535 | 68.28452 | 12605 ft | 413 kts | 126° |
| 2026-05-06 08:47 | 24.69764 | 68.30959 | 13076 ft | 417 kts | 126° |
| 2026-05-06 08:48 | 24.67982 | 68.33481 | 13551 ft | 420 kts | 126° |
| 2026-05-06 08:48 | 24.66183 | 68.36024 | 14039 ft | 422 kts | 126° |
| 2026-05-06 08:48 | 24.64346 | 68.38620 | 14510 ft | 426 kts | 126° |
| 2026-05-06 08:48 | 24.62550 | 68.41166 | 14981 ft | 429 kts | 126° |
| 2026-05-06 08:49 | 24.60719 | 68.43768 | 15457 ft | 431 kts | 126° |
| 2026-05-06 08:49 | 24.58893 | 68.46368 | 15911 ft | 431 kts | 126° |
| 2026-05-06 08:49 | 24.57063 | 68.48978 | 16398 ft | 430 kts | 126° |
| 2026-05-06 08:49 | 24.55242 | 68.51581 | 16857 ft | 432 kts | 126° |
| 2026-05-06 08:50 | 24.53383 | 68.54248 | 17365 ft | 446 kts | 126° |
| 2026-05-06 08:50 | 24.51478 | 68.56983 | 17876 ft | 455 kts | 126° |
| 2026-05-06 08:50 | 24.49545 | 68.59765 | 18332 ft | 459 kts | 126° |
| 2026-05-06 08:50 | 24.47610 | 68.62558 | 18806 ft | 462 kts | 126° |
| 2026-05-06 08:51 | 24.45663 | 68.65378 | 19296 ft | 464 kts | 126° |
| 2026-05-06 08:51 | 24.43715 | 68.68211 | 19797 ft | 469 kts | 126° |
| 2026-05-06 08:51 | 24.41737 | 68.71101 | 20315 ft | 477 kts | 126° |
| 2026-05-06 08:51 | 24.39738 | 68.74037 | 20820 ft | 484 kts | 126° |
| 2026-05-06 08:52 | 24.37718 | 68.77017 | 21321 ft | 489 kts | 126° |
| 2026-05-06 08:52 | 24.35685 | 68.80026 | 21826 ft | 494 kts | 126° |
| 2026-05-06 08:52 | 24.33668 | 68.83090 | 22324 ft | 498 kts | 123° |
| 2026-05-06 08:52 | 24.31978 | 68.86430 | 22815 ft | 503 kts | 114° |
| 2026-05-06 08:53 | 24.30760 | 68.90038 | 23323 ft | 506 kts | 105° |
| 2026-05-06 08:53 | 24.30042 | 68.93824 | 23827 ft | 510 kts | 96° |
| 2026-05-06 08:53 | 24.29679 | 68.97704 | 24335 ft | 513 kts | 93° |
| 2026-05-06 08:53 | 24.29447 | 69.01625 | 24834 ft | 517 kts | 91° |
| 2026-05-06 08:54 | 24.29251 | 69.05569 | 25336 ft | 520 kts | 91° |
| 2026-05-06 08:54 | 24.29059 | 69.09544 | 25838 ft | 523 kts | 91° |
| 2026-05-06 08:54 | 24.28864 | 69.13532 | 26335 ft | 526 kts | 91° |
| 2026-05-06 08:54 | 24.28661 | 69.17549 | 26824 ft | 529 kts | 91° |
| 2026-05-06 08:55 | 24.28449 | 69.21578 | 27322 ft | 531 kts | 91° |
| 2026-05-06 08:55 | 24.28225 | 69.25627 | 27811 ft | 533 kts | 90° |
| 2026-05-06 08:55 | 24.27988 | 69.29698 | 28305 ft | 535 kts | 90° |
| 2026-05-06 08:55 | 24.27732 | 69.33779 | 28799 ft | 538 kts | 91° |
| 2026-05-06 08:56 | 24.27295 | 69.37861 | 29283 ft | 542 kts | 96° |
| 2026-05-06 08:56 | 24.26640 | 69.41936 | 29777 ft | 544 kts | 97° |
| 2026-05-06 08:56 | 24.25897 | 69.46011 | 30270 ft | 546 kts | 98° |
| 2026-05-06 08:56 | 24.25115 | 69.50083 | 30762 ft | 548 kts | 98° |
| 2026-05-06 08:57 | 24.24321 | 69.54173 | 31257 ft | 549 kts | 99° |
| 2026-05-06 08:57 | 24.23526 | 69.58262 | 31749 ft | 549 kts | 99° |
| 2026-05-06 08:57 | 24.22741 | 69.62306 | 32238 ft | 549 kts | 99° |
| 2026-05-06 08:57 | 24.21939 | 69.66449 | 32731 ft | 549 kts | 99° |
| 2026-05-06 08:58 | 24.21163 | 69.70492 | 33220 ft | 549 kts | 99° |
| 2026-05-06 08:58 | 24.20387 | 69.74578 | 33705 ft | 548 kts | 99° |
| 2026-05-06 08:58 | 24.19624 | 69.78658 | 34193 ft | 546 kts | 99° |
| 2026-05-06 08:58 | 24.18878 | 69.82724 | 34678 ft | 544 kts | 99° |
| 2026-05-06 08:59 | 24.18142 | 69.86795 | 34907 ft | 545 kts | 99° |
| 2026-05-06 08:59 | 24.16704 | 69.94903 | 34871 ft | 538 kts | 99° |
| 2026-05-06 09:00 | 24.15293 | 70.02931 | 34873 ft | 537 kts | 99° |
| 2026-05-06 09:00 | 24.13889 | 70.10960 | 34877 ft | 538 kts | 99° |
| 2026-05-06 09:01 | 24.13042 | 70.19072 | 34881 ft | 536 kts | 91° |
| 2026-05-06 09:01 | 24.12622 | 70.27222 | 34870 ft | 537 kts | 90° |
| 2026-05-06 09:02 | 24.12247 | 70.35386 | 34872 ft | 537 kts | 90° |
| 2026-05-06 09:02 | 24.11883 | 70.43563 | 34872 ft | 538 kts | 90° |
| 2026-05-06 09:03 | 24.11525 | 70.51735 | 34870 ft | 538 kts | 90° |
| 2026-05-06 09:03 | 24.11161 | 70.59914 | 34871 ft | 537 kts | 90° |
| 2026-05-06 09:04 | 24.10792 | 70.68086 | 34885 ft | 537 kts | 90° |
| 2026-05-06 09:04 | 24.10419 | 70.76250 | 34877 ft | 537 kts | 90° |
| 2026-05-06 09:05 | 24.10044 | 70.84421 | 34853 ft | 539 kts | 90° |
| 2026-05-06 09:05 | 24.09674 | 70.92611 | 34846 ft | 539 kts | 90° |
| 2026-05-06 09:06 | 24.09308 | 71.00820 | 34841 ft | 540 kts | 90° |
| 2026-05-06 09:06 | 24.08941 | 71.09035 | 34843 ft | 540 kts | 90° |
| 2026-05-06 09:07 | 24.08573 | 71.17249 | 34836 ft | 541 kts | 90° |
| 2026-05-06 09:07 | 24.08201 | 71.25469 | 34830 ft | 541 kts | 90° |
| 2026-05-06 09:08 | 24.07833 | 71.33693 | 34829 ft | 542 kts | 90° |
| 2026-05-06 09:08 | 24.07470 | 71.41874 | 34832 ft | 542 kts | 90° |
| 2026-05-06 09:09 | 24.07106 | 71.50105 | 34816 ft | 542 kts | 90° |
| 2026-05-06 09:09 | 24.06745 | 71.58348 | 34830 ft | 542 kts | 90° |
| 2026-05-06 09:10 | 24.06388 | 71.66583 | 34829 ft | 542 kts | 90° |
| 2026-05-06 09:10 | 24.06037 | 71.74817 | 34830 ft | 542 kts | 90° |
| 2026-05-06 09:11 | 24.05689 | 71.83056 | 34830 ft | 542 kts | 90° |
| 2026-05-06 09:11 | 24.05342 | 71.91293 | 34829 ft | 542 kts | 90° |
| 2026-05-06 09:12 | 24.04997 | 71.99533 | 34831 ft | 542 kts | 90° |
| 2026-05-06 09:12 | 24.04710 | 72.06376 | 34822 ft | 541 kts | 90° |
| 2026-05-06 09:13 | 24.04366 | 72.14606 | 34830 ft | 542 kts | 90° |
| 2026-05-06 09:13 | 24.04027 | 72.22839 | 34814 ft | 542 kts | 90° |
| 2026-05-06 09:14 | 24.03686 | 72.31074 | 34830 ft | 542 kts | 90° |
| 2026-05-06 09:14 | 24.03347 | 72.39312 | 34818 ft | 542 kts | 90° |
| 2026-05-06 09:15 | 24.03007 | 72.47551 | 34821 ft | 542 kts | 90° |
| 2026-05-06 09:15 | 24.02669 | 72.55789 | 34817 ft | 542 kts | 90° |
| 2026-05-06 09:16 | 24.02336 | 72.64030 | 34815 ft | 542 kts | 89° |
| 2026-05-06 09:16 | 24.02073 | 72.72271 | 34814 ft | 542 kts | 89° |
| 2026-05-06 09:17 | 24.01841 | 72.80464 | 34814 ft | 542 kts | 89° |
| 2026-05-06 09:17 | 24.01615 | 72.88700 | 34817 ft | 542 kts | 89° |
| 2026-05-06 09:18 | 24.01396 | 72.96947 | 34822 ft | 542 kts | 89° |
| 2026-05-06 09:18 | 24.01181 | 73.05189 | 34832 ft | 542 kts | 89° |
| 2026-05-06 09:19 | 24.00974 | 73.13442 | 34813 ft | 543 kts | 89° |
| 2026-05-06 09:19 | 24.00771 | 73.21692 | 34843 ft | 543 kts | 89° |
| 2026-05-06 09:20 | 24.00568 | 73.29966 | 34840 ft | 544 kts | 89° |
| 2026-05-06 09:20 | 24.00369 | 73.38235 | 34855 ft | 543 kts | 89° |
| 2026-05-06 09:21 | 24.00181 | 73.46492 | 34851 ft | 543 kts | 89° |
| 2026-05-06 09:21 | 24.00002 | 73.54746 | 34867 ft | 543 kts | 89° |
| 2026-05-06 09:22 | 23.99832 | 73.62992 | 34858 ft | 542 kts | 89° |
| 2026-05-06 09:22 | 23.99669 | 73.71232 | 34862 ft | 541 kts | 89° |
| 2026-05-06 09:23 | 23.99510 | 73.79458 | 34867 ft | 541 kts | 89° |
| 2026-05-06 09:23 | 23.99351 | 73.87680 | 34862 ft | 541 kts | 89° |
| 2026-05-06 09:24 | 23.99193 | 73.95903 | 34876 ft | 541 kts | 89° |
| 2026-05-06 09:24 | 23.99035 | 74.04125 | 34871 ft | 541 kts | 89° |
| 2026-05-06 09:25 | 23.98878 | 74.12359 | 34872 ft | 542 kts | 89° |
| 2026-05-06 09:25 | 23.98722 | 74.20605 | 34870 ft | 542 kts | 89° |
| 2026-05-06 09:26 | 23.98567 | 74.28853 | 34870 ft | 543 kts | 89° |
| 2026-05-06 09:26 | 23.98415 | 74.37100 | 34872 ft | 542 kts | 89° |
| 2026-05-06 09:27 | 23.98273 | 74.45340 | 34870 ft | 542 kts | 89° |
| 2026-05-06 09:27 | 23.98643 | 74.53525 | 34864 ft | 536 kts | 77° |
| 2026-05-06 09:28 | 24.00175 | 74.61473 | 34874 ft | 533 kts | 72° |
| 2026-05-06 09:28 | 24.02105 | 74.69295 | 34866 ft | 532 kts | 68° |
| 2026-05-06 09:29 | 24.04777 | 74.76773 | 34863 ft | 524 kts | 58° |
| 2026-05-06 09:29 | 24.08324 | 74.83685 | 34876 ft | 520 kts | 53° |
| 2026-05-06 09:30 | 24.12090 | 74.90455 | 34874 ft | 521 kts | 53° |
| 2026-05-06 09:30 | 24.15890 | 74.97213 | 34867 ft | 522 kts | 52° |
| 2026-05-06 09:31 | 24.19702 | 75.03975 | 34872 ft | 522 kts | 53° |
| 2026-05-06 09:31 | 24.23502 | 75.10700 | 34873 ft | 523 kts | 53° |
| 2026-05-06 09:32 | 24.27338 | 75.17469 | 34868 ft | 523 kts | 52° |
| 2026-05-06 09:32 | 24.31184 | 75.24242 | 34870 ft | 523 kts | 52° |
| 2026-05-06 09:33 | 24.35035 | 75.31019 | 34871 ft | 524 kts | 53° |
| 2026-05-06 09:33 | 24.38884 | 75.37789 | 34872 ft | 524 kts | 53° |
| 2026-05-06 09:34 | 24.42747 | 75.44571 | 34868 ft | 524 kts | 52° |
| 2026-05-06 09:34 | 24.46610 | 75.51340 | 34868 ft | 523 kts | 52° |
| 2026-05-06 09:35 | 24.50475 | 75.58113 | 34860 ft | 523 kts | 52° |
| 2026-05-06 09:35 | 24.54329 | 75.64871 | 34859 ft | 523 kts | 52° |
| 2026-05-06 09:36 | 24.58190 | 75.71639 | 34861 ft | 523 kts | 52° |
| 2026-05-06 09:36 | 24.62051 | 75.78406 | 34861 ft | 523 kts | 52° |
| 2026-05-06 09:37 | 24.65912 | 75.85183 | 34861 ft | 523 kts | 52° |
| 2026-05-06 09:37 | 24.69773 | 75.91959 | 34862 ft | 523 kts | 52° |
| 2026-05-06 09:38 | 24.73635 | 75.98742 | 34861 ft | 523 kts | 52° |
| 2026-05-06 09:38 | 24.77495 | 76.05520 | 34861 ft | 523 kts | 53° |
| 2026-05-06 09:39 | 24.81345 | 76.12251 | 34860 ft | 523 kts | 53° |
| 2026-05-06 09:39 | 24.85228 | 76.19026 | 34862 ft | 523 kts | 52° |
| 2026-05-06 09:40 | 24.89115 | 76.25812 | 34859 ft | 524 kts | 52° |
| 2026-05-06 09:40 | 24.94941 | 76.35999 | 34864 ft | 524 kts | 53° |
| 2026-05-06 09:41 | 24.98832 | 76.42782 | 34861 ft | 523 kts | 51° |
| 2026-05-06 09:41 | 25.02961 | 76.49348 | 34863 ft | 521 kts | 49° |
| 2026-05-06 09:42 | 25.07193 | 76.55840 | 34861 ft | 521 kts | 49° |
| 2026-05-06 09:42 | 25.11438 | 76.62319 | 34861 ft | 521 kts | 49° |
| 2026-05-06 09:43 | 25.15686 | 76.68788 | 34859 ft | 521 kts | 49° |
| 2026-05-06 09:43 | 25.19940 | 76.75262 | 34861 ft | 521 kts | 49° |
| 2026-05-06 09:44 | 25.24194 | 76.81734 | 34861 ft | 521 kts | 49° |
| 2026-05-06 09:44 | 25.28154 | 76.88406 | 34856 ft | 528 kts | 59° |
| 2026-05-06 09:45 | 25.30470 | 76.96161 | 34865 ft | 538 kts | 77° |
| 2026-05-06 09:45 | 25.30743 | 77.04432 | 34862 ft | 542 kts | 96° |
| 2026-05-06 09:46 | 25.28932 | 77.12494 | 34858 ft | 542 kts | 114° |
| 2026-05-06 09:46 | 25.25196 | 77.19646 | 34860 ft | 535 kts | 131° |
| 2026-05-06 09:47 | 25.19895 | 77.25262 | 34865 ft | 524 kts | 149° |
| 2026-05-06 09:47 | 25.13807 | 77.29650 | 34866 ft | 522 kts | 152° |
| 2026-05-06 09:48 | 25.07715 | 77.34005 | 34859 ft | 522 kts | 152° |
| 2026-05-06 09:48 | 25.01615 | 77.38359 | 34855 ft | 521 kts | 152° |
| 2026-05-06 09:49 | 24.95529 | 77.42706 | 34851 ft | 522 kts | 152° |
| 2026-05-06 09:49 | 24.89439 | 77.47058 | 34848 ft | 521 kts | 152° |
| 2026-05-06 09:50 | 24.83354 | 77.51404 | 34852 ft | 521 kts | 152° |
| 2026-05-06 09:50 | 24.77279 | 77.55751 | 34851 ft | 521 kts | 152° |
| 2026-05-06 09:51 | 24.71219 | 77.60096 | 34852 ft | 520 kts | 152° |
| 2026-05-06 09:51 | 24.65165 | 77.64442 | 34855 ft | 519 kts | 152° |
| 2026-05-06 09:52 | 24.59108 | 77.68734 | 34845 ft | 516 kts | 156° |
| 2026-05-06 09:52 | 24.52550 | 77.71544 | 34849 ft | 498 kts | 174° |
| 2026-05-06 09:53 | 24.45822 | 77.72058 | 34849 ft | 480 kts | 192° |
| 2026-05-06 09:53 | 24.39244 | 77.71001 | 34849 ft | 479 kts | 189° |
| 2026-05-06 09:54 | 24.32544 | 77.71773 | 34853 ft | 499 kts | 171° |
| 2026-05-06 09:54 | 24.26083 | 77.74826 | 34840 ft | 516 kts | 153° |
| 2026-05-06 09:55 | 24.20540 | 77.79942 | 34841 ft | 529 kts | 135° |
| 2026-05-06 09:55 | 24.16449 | 77.86710 | 34842 ft | 538 kts | 117° |
| 2026-05-06 09:56 | 24.14216 | 77.94536 | 34841 ft | 543 kts | 99° |
| 2026-05-06 09:56 | 24.14036 | 78.02778 | 34812 ft | 542 kts | 82° |
| 2026-05-06 09:57 | 24.15933 | 78.10705 | 34830 ft | 536 kts | 64° |
| 2026-05-06 09:57 | 24.19711 | 78.17631 | 34820 ft | 526 kts | 46° |
| 2026-05-06 09:58 | 24.23748 | 78.22579 | 34831 ft | 523 kts | 41° |
| 2026-05-06 09:58 | 24.28803 | 78.28295 | 34832 ft | 522 kts | 40° |
| 2026-05-06 09:59 | 24.34739 | 78.34930 | 34835 ft | 522 kts | 40° |
| 2026-05-06 09:59 | 24.38979 | 78.39652 | 34833 ft | 522 kts | 40° |
| 2026-05-06 10:00 | 24.44075 | 78.45321 | 34833 ft | 522 kts | 40° |
| 2026-05-06 10:00 | 24.49175 | 78.50996 | 34831 ft | 522 kts | 40° |
| 2026-05-06 10:01 | 24.54277 | 78.56673 | 34834 ft | 522 kts | 40° |
| 2026-05-06 10:01 | 24.59381 | 78.62351 | 34832 ft | 522 kts | 40° |
| 2026-05-06 10:02 | 24.64486 | 78.68033 | 34835 ft | 522 kts | 40° |
| 2026-05-06 10:02 | 24.69591 | 78.73721 | 34832 ft | 522 kts | 40° |
| 2026-05-06 10:03 | 24.74684 | 78.79397 | 34835 ft | 521 kts | 40° |
| 2026-05-06 10:03 | 24.79777 | 78.85082 | 34827 ft | 522 kts | 40° |
| 2026-05-06 10:04 | 24.84882 | 78.90772 | 34832 ft | 522 kts | 40° |
| 2026-05-06 10:04 | 24.89991 | 78.96457 | 34823 ft | 522 kts | 40° |
| 2026-05-06 10:05 | 24.95108 | 79.02148 | 34807 ft | 523 kts | 40° |
| 2026-05-06 10:05 | 25.00229 | 79.07842 | 34801 ft | 523 kts | 40° |
| 2026-05-06 10:06 | 25.05345 | 79.13538 | 34801 ft | 523 kts | 40° |
| 2026-05-06 10:06 | 25.10427 | 79.19195 | 34806 ft | 522 kts | 40° |
| 2026-05-06 10:07 | 25.15540 | 79.24889 | 34802 ft | 522 kts | 40° |
| 2026-05-06 10:07 | 25.20653 | 79.30585 | 34806 ft | 522 kts | 40° |
| 2026-05-06 10:08 | 25.25763 | 79.36280 | 34808 ft | 522 kts | 40° |
| 2026-05-06 10:08 | 25.30878 | 79.41985 | 34799 ft | 522 kts | 40° |
| 2026-05-06 10:09 | 25.35988 | 79.47684 | 34806 ft | 522 kts | 40° |
| 2026-05-06 10:09 | 25.41092 | 79.53371 | 34811 ft | 521 kts | 40° |
| 2026-05-06 10:10 | 25.46204 | 79.59064 | 34804 ft | 521 kts | 40° |
| 2026-05-06 10:10 | 25.51316 | 79.64752 | 34804 ft | 521 kts | 40° |
| 2026-05-06 10:11 | 25.56433 | 79.70440 | 34806 ft | 521 kts | 40° |
| 2026-05-06 10:11 | 25.61558 | 79.76129 | 34808 ft | 522 kts | 40° |
| 2026-05-06 10:12 | 25.66739 | 79.81759 | 34805 ft | 522 kts | 40° |
| 2026-05-06 10:12 | 25.71948 | 79.87372 | 34800 ft | 522 kts | 39° |
| 2026-05-06 10:13 | 25.77162 | 79.92978 | 34798 ft | 522 kts | 39° |
| 2026-05-06 10:13 | 25.82370 | 79.98574 | 34798 ft | 521 kts | 39° |
| 2026-05-06 10:14 | 25.87576 | 80.04172 | 34793 ft | 521 kts | 39° |
| 2026-05-06 10:14 | 25.92777 | 80.09767 | 34791 ft | 521 kts | 39° |
| 2026-05-06 10:15 | 25.97985 | 80.15369 | 34792 ft | 521 kts | 39° |
| 2026-05-06 10:15 | 26.03191 | 80.20974 | 34792 ft | 521 kts | 39° |
| 2026-05-06 10:16 | 26.08391 | 80.26576 | 34795 ft | 520 kts | 39° |
| 2026-05-06 10:16 | 26.13592 | 80.32182 | 34786 ft | 521 kts | 39° |
| 2026-05-06 10:17 | 26.18769 | 80.37760 | 34787 ft | 521 kts | 39° |
| 2026-05-06 10:17 | 26.23973 | 80.43375 | 34787 ft | 521 kts | 39° |
| 2026-05-06 10:18 | 26.29187 | 80.49006 | 34779 ft | 522 kts | 39° |
| 2026-05-06 10:18 | 26.34404 | 80.54638 | 34777 ft | 522 kts | 39° |
| 2026-05-06 10:19 | 26.39629 | 80.60275 | 34774 ft | 523 kts | 39° |
| 2026-05-06 10:19 | 26.44854 | 80.65920 | 34774 ft | 523 kts | 39° |
| 2026-05-06 10:20 | 26.50077 | 80.71574 | 34777 ft | 523 kts | 39° |
| 2026-05-06 10:20 | 26.55307 | 80.77229 | 34777 ft | 524 kts | 39° |
| 2026-05-06 10:21 | 26.60603 | 80.82811 | 34776 ft | 523 kts | 38° |
| 2026-05-06 10:21 | 26.65966 | 80.88304 | 34778 ft | 523 kts | 38° |
| 2026-05-06 10:22 | 26.71199 | 80.93984 | 34775 ft | 528 kts | 46° |
| 2026-05-06 10:22 | 26.75099 | 81.00998 | 34787 ft | 536 kts | 65° |
| 2026-05-06 10:23 | 26.77460 | 81.08936 | 34788 ft | 539 kts | 73° |
| 2026-05-06 10:23 | 26.79176 | 81.17113 | 34777 ft | 540 kts | 81° |
| 2026-05-06 10:24 | 26.79983 | 81.25422 | 34773 ft | 541 kts | 86° |
| 2026-05-06 10:24 | 26.80588 | 81.33812 | 34767 ft | 541 kts | 84° |
| 2026-05-06 10:25 | 26.81391 | 81.42193 | 34768 ft | 541 kts | 84° |
| 2026-05-06 10:25 | 26.82233 | 81.50559 | 34768 ft | 541 kts | 84° |
| 2026-05-06 10:26 | 26.83096 | 81.58926 | 34769 ft | 541 kts | 84° |
| 2026-05-06 10:26 | 26.83967 | 81.67293 | 34756 ft | 541 kts | 84° |
| 2026-05-06 10:27 | 26.84851 | 81.75666 | 34760 ft | 541 kts | 83° |
| 2026-05-06 10:27 | 26.85737 | 81.84039 | 34757 ft | 542 kts | 83° |
| 2026-05-06 10:28 | 26.86629 | 81.92420 | 34747 ft | 542 kts | 83° |
| 2026-05-06 10:28 | 26.87522 | 82.00794 | 34748 ft | 541 kts | 83° |
| 2026-05-06 10:29 | 26.88421 | 82.09164 | 34750 ft | 542 kts | 84° |
| 2026-05-06 10:29 | 26.89343 | 82.17539 | 34750 ft | 542 kts | 83° |
| 2026-05-06 10:30 | 26.90274 | 82.25914 | 34750 ft | 542 kts | 83° |
| 2026-05-06 10:30 | 26.91215 | 82.34305 | 34750 ft | 542 kts | 83° |
| 2026-05-06 10:31 | 26.92155 | 82.42692 | 34748 ft | 542 kts | 83° |
| 2026-05-06 10:31 | 26.93100 | 82.51070 | 34747 ft | 542 kts | 83° |
| 2026-05-06 10:32 | 26.94053 | 82.59447 | 34750 ft | 542 kts | 83° |
| 2026-05-06 10:32 | 26.95007 | 82.67824 | 34748 ft | 542 kts | 83° |
| 2026-05-06 10:33 | 26.95964 | 82.76201 | 34751 ft | 542 kts | 83° |
| 2026-05-06 10:33 | 26.96922 | 82.84579 | 34753 ft | 542 kts | 83° |
| 2026-05-06 10:34 | 26.97879 | 82.92909 | 34758 ft | 542 kts | 83° |
| 2026-05-06 10:34 | 26.98850 | 83.01295 | 34752 ft | 543 kts | 83° |
| 2026-05-06 10:35 | 26.99825 | 83.09697 | 34749 ft | 543 kts | 83° |
| 2026-05-06 10:35 | 27.00811 | 83.18152 | 34750 ft | 543 kts | 83° |
| 2026-05-06 10:36 | 27.01794 | 83.26502 | 34749 ft | 544 kts | 83° |
| 2026-05-06 10:36 | 27.02785 | 83.34869 | 34534 ft | 535 kts | 83° |
| 2026-05-06 10:37 | 27.03236 | 83.38978 | 34026 ft | 530 kts | 85° |
| 2026-05-06 10:37 | 27.03644 | 83.43098 | 33200 ft | 533 kts | 85° |
| 2026-05-06 10:37 | 27.04045 | 83.47239 | 32398 ft | 534 kts | 85° |
| 2026-05-06 10:37 | 27.04439 | 83.51371 | 31766 ft | 531 kts | 85° |
| 2026-05-06 10:38 | 27.04826 | 83.55470 | 31219 ft | 525 kts | 85° |
| 2026-05-06 10:38 | 27.05207 | 83.59512 | 30737 ft | 519 kts | 85° |
| 2026-05-06 10:38 | 27.05582 | 83.63511 | 30281 ft | 511 kts | 85° |
| 2026-05-06 10:38 | 27.05950 | 83.67451 | 29804 ft | 505 kts | 85° |
| 2026-05-06 10:39 | 27.06316 | 83.71343 | 29279 ft | 499 kts | 85° |
| 2026-05-06 10:39 | 27.06679 | 83.75192 | 28726 ft | 494 kts | 85° |
| 2026-05-06 10:39 | 27.07040 | 83.79008 | 28188 ft | 489 kts | 85° |
| 2026-05-06 10:39 | 27.07399 | 83.82789 | 27676 ft | 484 kts | 85° |
| 2026-05-06 10:40 | 27.07753 | 83.86513 | 27171 ft | 478 kts | 85° |
| 2026-05-06 10:40 | 27.08103 | 83.90202 | 26654 ft | 473 kts | 85° |
| 2026-05-06 10:40 | 27.08448 | 83.93850 | 26143 ft | 468 kts | 85° |
| 2026-05-06 10:40 | 27.08786 | 83.97469 | 25632 ft | 463 kts | 86° |
| 2026-05-06 10:41 | 27.09092 | 84.01044 | 25128 ft | 458 kts | 86° |
| 2026-05-06 10:41 | 27.09389 | 84.04592 | 24837 ft | 459 kts | 86° |
| 2026-05-06 10:41 | 27.09685 | 84.08160 | 24763 ft | 459 kts | 86° |
| 2026-05-06 10:41 | 27.09979 | 84.11710 | 24631 ft | 453 kts | 86° |
| 2026-05-06 10:42 | 27.10270 | 84.15209 | 24356 ft | 449 kts | 86° |
| 2026-05-06 10:42 | 27.10557 | 84.18686 | 23982 ft | 445 kts | 86° |
| 2026-05-06 10:42 | 27.10843 | 84.22128 | 23492 ft | 441 kts | 86° |
| 2026-05-06 10:42 | 27.11126 | 84.25548 | 22970 ft | 438 kts | 86° |
| 2026-05-06 10:43 | 27.11405 | 84.28929 | 22441 ft | 434 kts | 86° |
| 2026-05-06 10:43 | 27.11681 | 84.32298 | 21940 ft | 430 kts | 86° |
| 2026-05-06 10:43 | 27.11950 | 84.35619 | 21457 ft | 426 kts | 86° |
| 2026-05-06 10:44 | 27.12388 | 84.41076 | 20645 ft | 419 kts | 86° |
| 2026-05-06 10:44 | 27.12647 | 84.44323 | 20168 ft | 415 kts | 86° |
| 2026-05-06 10:44 | 27.12901 | 84.47537 | 19688 ft | 412 kts | 86° |
| 2026-05-06 10:44 | 27.13234 | 84.51792 | 19068 ft | 406 kts | 86° |
| 2026-05-06 10:45 | 27.13395 | 84.53874 | 18753 ft | 404 kts | 86° |
| 2026-05-06 10:45 | 27.13634 | 84.56997 | 18292 ft | 400 kts | 86° |
| 2026-05-06 10:45 | 27.13870 | 84.60099 | 17824 ft | 396 kts | 86° |
| 2026-05-06 10:45 | 27.14101 | 84.63170 | 17344 ft | 393 kts | 86° |
| 2026-05-06 10:46 | 27.14327 | 84.66213 | 16870 ft | 390 kts | 86° |
| 2026-05-06 10:46 | 27.14550 | 84.69230 | 16398 ft | 386 kts | 86° |
| 2026-05-06 10:46 | 27.14769 | 84.72226 | 15930 ft | 383 kts | 86° |
| 2026-05-06 10:46 | 27.14985 | 84.75192 | 15467 ft | 380 kts | 86° |
| 2026-05-06 10:47 | 27.15197 | 84.78137 | 15008 ft | 376 kts | 86° |
| 2026-05-06 10:47 | 27.15406 | 84.81053 | 14548 ft | 373 kts | 86° |
| 2026-05-06 10:47 | 27.15612 | 84.83945 | 14085 ft | 370 kts | 86° |
| 2026-05-06 10:47 | 27.15815 | 84.86820 | 13638 ft | 367 kts | 86° |
| 2026-05-06 10:48 | 27.16015 | 84.89662 | 13177 ft | 365 kts | 86° |
| 2026-05-06 10:48 | 27.16211 | 84.92488 | 12725 ft | 362 kts | 86° |
| 2026-05-06 10:48 | 27.16407 | 84.95298 | 12270 ft | 359 kts | 86° |
| 2026-05-06 10:48 | 27.16602 | 84.98084 | 11814 ft | 357 kts | 86° |
| 2026-05-06 10:49 | 27.16794 | 85.00845 | 11377 ft | 354 kts | 86° |
| 2026-05-06 10:49 | 27.16983 | 85.03595 | 10920 ft | 351 kts | 86° |
| 2026-05-06 10:49 | 27.17168 | 85.06323 | 10444 ft | 350 kts | 86° |
| 2026-05-06 10:49 | 27.17439 | 85.09027 | 9963 ft | 348 kts | 81° |
| 2026-05-06 10:50 | 27.18159 | 85.11608 | 9468 ft | 347 kts | 63° |
| 2026-05-06 10:50 | 27.19565 | 85.13785 | 9021 ft | 345 kts | 45° |
| 2026-05-06 10:50 | 27.21508 | 85.15330 | 8544 ft | 342 kts | 26° |
| 2026-05-06 10:50 | 27.23690 | 85.16352 | 8176 ft | 337 kts | 20° |
| 2026-05-06 10:51 | 27.25863 | 85.17220 | 8087 ft | 325 kts | 19° |
| 2026-05-06 10:51 | 27.27937 | 85.18022 | 8027 ft | 318 kts | 18° |
| 2026-05-06 10:51 | 27.30071 | 85.18842 | 7822 ft | 322 kts | 18° |
| 2026-05-06 10:51 | 27.32168 | 85.19643 | 7457 ft | 322 kts | 18° |
| 2026-05-06 10:52 | 27.34313 | 85.20463 | 7092 ft | 320 kts | 18° |
| 2026-05-06 10:52 | 27.36377 | 85.21236 | 6718 ft | 317 kts | 18° |
| 2026-05-06 10:52 | 27.38470 | 85.22027 | 6364 ft | 317 kts | 18° |
| 2026-05-06 10:52 | 27.40543 | 85.22816 | 6197 ft | 308 kts | 18° |
| 2026-05-06 10:53 | 27.42529 | 85.23573 | 6292 ft | 295 kts | 19° |
| 2026-05-06 10:53 | 27.44438 | 85.24381 | 6560 ft | 292 kts | 21° |
| 2026-05-06 10:53 | 27.46306 | 85.25244 | 6970 ft | 288 kts | 22° |
| 2026-05-06 10:53 | 27.48160 | 85.26111 | 7265 ft | 289 kts | 22° |
| 2026-05-06 10:54 | 27.50023 | 85.26985 | 7531 ft | 291 kts | 22° |
| 2026-05-06 10:54 | 27.51896 | 85.27868 | 7790 ft | 292 kts | 22° |
| 2026-05-06 10:54 | 27.53767 | 85.28745 | 8020 ft | 289 kts | 22° |
| 2026-05-06 10:54 | 27.55584 | 85.29597 | 8044 ft | 276 kts | 22° |
| 2026-05-06 10:55 | 27.57305 | 85.30400 | 8067 ft | 260 kts | 22° |
| 2026-05-06 10:55 | 27.58916 | 85.31177 | 8140 ft | 243 kts | 22° |
| 2026-05-06 10:55 | 27.60397 | 85.31901 | 8138 ft | 220 kts | 22° |
| 2026-05-06 10:55 | 27.61735 | 85.32545 | 7937 ft | 207 kts | 22° |
| 2026-05-06 10:56 | 27.63069 | 85.33097 | 7503 ft | 202 kts | 16° |
| 2026-05-06 10:56 | 27.63785 | 85.33340 | 7255 ft | 201 kts | 15° |
| 2026-05-06 10:56 | 27.64489 | 85.33583 | 6885 ft | 201 kts | 16° |
| 2026-05-06 10:57 | 27.65866 | 85.34115 | 5559 ft | 224 kts | 18° |
| 2026-05-06 10:57 | 27.67311 | 85.34827 | 4888 ft | 220 kts | 24° |
| 2026-05-06 10:57 | 27.68697 | 85.35483 | 4336 ft | 209 kts | 19° |
| 2026-05-06 10:57 | 27.69761 | 85.35959 | 4359 ft | 99 kts | 32° |
| 2026-05-06 10:58 | 27.70062 | 85.36104 | 4363 ft | 21 kts | 20° |
| 2026-05-06 10:58 | 27.70151 | 85.36118 | 4373 ft | 12 kts | 348° |
| 2026-05-06 10:58 | 27.70183 | 85.36048 | 4379 ft | 13 kts | 233° |
| 2026-05-06 10:58 | 27.70102 | 85.35996 | 4359 ft | 14 kts | 202° |
| 2026-05-06 10:59 | 27.70000 | 85.35951 | 4361 ft | 17 kts | 201° |
| 2026-05-06 10:59 | 27.69928 | 85.35907 | 4358 ft | 6 kts | 244° |
| 2026-05-06 10:59 | 27.69930 | 85.35856 | 4368 ft | 7 kts | 282° |
| 2026-05-06 10:59 | 27.69938 | 85.35826 | 4368 ft | 0 kts | 288° |